sensor_id;sensor_type;location;lat;lon;timestamp;pressure;altitude;pressure_sealevel;temperature;humidity
9423;BME280;65863;49.506;10.400;2023-09-18T00:01:24;97540.88;;;17.79;87.97
9423;BME280;65863;49.506;10.400;2023-09-18T00:04:23;97503.81;;;17.53;88.18
9423;BME280;65863;49.506;10.400;2023-09-18T00:07:07;97489.00;;;17.43;88.21
9423;BME280;65863;49.506;10.400;2023-09-18T00:09:50;97487.66;;;17.44;88.44
9423;BME280;65863;49.506;10.400;2023-09-18T00:12:35;97519.72;;;17.59;88.04
9423;BME280;65863;49.506;10.400;2023-09-18T00:15:57;97495.16;;;17.40;88.26
9423;BME280;65863;49.506;10.400;2023-09-18T00:18:47;97496.88;;;17.33;88.31
9423;BME280;65863;49.506;10.400;2023-09-18T00:21:32;97486.88;;;17.32;88.87
9423;BME280;65863;49.506;10.400;2023-09-18T00:24:15;97505.03;;;17.50;89.03
9423;BME280;65863;49.506;10.400;2023-09-18T00:27:00;97486.63;;;17.28;89.07
9423;BME280;65863;49.506;10.400;2023-09-18T00:29:44;97475.78;;;17.24;89.21
9423;BME280;65863;49.506;10.400;2023-09-18T00:32:28;97482.44;;;17.29;89.36
9423;BME280;65863;49.506;10.400;2023-09-18T00:35:12;97418.53;;;16.70;89.46
9423;BME280;65863;49.506;10.400;2023-09-18T00:37:57;97460.03;;;16.99;90.12
9423;BME280;65863;49.506;10.400;2023-09-18T00:40:51;97431.09;;;16.67;90.22
9423;BME280;65863;49.506;10.400;2023-09-18T00:43:35;97472.88;;;17.00;90.60
9423;BME280;65863;49.506;10.400;2023-09-18T00:46:57;97460.19;;;17.01;90.81
9423;BME280;65863;49.506;10.400;2023-09-18T00:49:49;97458.94;;;16.93;91.16
9423;BME280;65863;49.506;10.400;2023-09-18T00:52:34;97452.22;;;17.21;91.89
9423;BME280;65863;49.506;10.400;2023-09-18T00:55:18;97436.44;;;17.18;91.91
9423;BME280;65863;49.506;10.400;2023-09-18T00:58:02;97407.06;;;17.02;91.72
9423;BME280;65863;49.506;10.400;2023-09-18T01:00:46;97437.66;;;17.15;91.56
9423;BME280;65863;49.506;10.400;2023-09-18T01:03:30;97425.66;;;17.05;91.54
9423;BME280;65863;49.506;10.400;2023-09-18T01:06:14;97459.84;;;17.19;91.23
9423;BME280;65863;49.506;10.400;2023-09-18T01:08:59;97444.06;;;17.04;91.14
9423;BME280;65863;49.506;10.400;2023-09-18T01:12:11;97470.34;;;17.28;91.97
9423;BME280;65863;49.506;10.400;2023-09-18T01:15:08;97422.34;;;16.97;91.80
9423;BME280;65863;49.506;10.400;2023-09-18T01:17:53;97469.13;;;17.31;92.03
9423;BME280;65863;49.506;10.400;2023-09-18T01:20:37;97447.53;;;17.14;92.04
9423;BME280;65863;49.506;10.400;2023-09-18T01:23:21;97432.47;;;17.12;92.21
9423;BME280;65863;49.506;10.400;2023-09-18T01:26:06;97401.22;;;16.88;92.48
9423;BME280;65863;49.506;10.400;2023-09-18T01:28:50;97453.34;;;17.40;92.69
9423;BME280;65863;49.506;10.400;2023-09-18T01:31:34;97397.09;;;17.13;92.87
9423;BME280;65863;49.506;10.400;2023-09-18T01:34:20;97431.66;;;17.57;93.19
9423;BME280;65863;49.506;10.400;2023-09-18T01:37:06;97434.13;;;17.62;92.79
9423;BME280;65863;49.506;10.400;2023-09-18T01:39:51;97421.16;;;17.59;92.56
9423;BME280;65863;49.506;10.400;2023-09-18T01:42:51;97408.97;;;17.57;92.40
9423;BME280;65863;49.506;10.400;2023-09-18T01:45:36;97417.56;;;17.70;92.32
9423;BME280;65863;49.506;10.400;2023-09-18T01:48:20;97412.78;;;17.61;91.91
9423;BME280;65863;49.506;10.400;2023-09-18T01:51:04;97380.22;;;17.38;91.74
9423;BME280;65863;49.506;10.400;2023-09-18T01:53:48;97426.34;;;17.63;91.83
9423;BME280;65863;49.506;10.400;2023-09-18T01:57:10;97415.25;;;17.43;91.66
9423;BME280;65863;49.506;10.400;2023-09-18T01:59:56;97409.56;;;17.43;91.84
9423;BME280;65863;49.506;10.400;2023-09-18T02:03:18;97415.63;;;17.49;92.37
9423;BME280;65863;49.506;10.400;2023-09-18T02:06:04;97425.63;;;17.62;92.36
9423;BME280;65863;49.506;10.400;2023-09-18T02:08:48;97413.25;;;17.58;92.20
9423;BME280;65863;49.506;10.400;2023-09-18T02:11:33;97385.88;;;17.38;92.29
9423;BME280;65863;49.506;10.400;2023-09-18T02:14:17;97377.25;;;17.25;92.17
9423;BME280;65863;49.506;10.400;2023-09-18T02:17:38;97399.81;;;17.34;92.31
9423;BME280;65863;49.506;10.400;2023-09-18T02:20:23;97386.00;;;17.29;92.21
9423;BME280;65863;49.506;10.400;2023-09-18T02:23:44;97375.91;;;17.26;92.71
9423;BME280;65863;49.506;10.400;2023-09-18T02:26:29;97404.13;;;17.47;92.68
9423;BME280;65863;49.506;10.400;2023-09-18T02:29:14;97395.28;;;17.41;93.04
9423;BME280;65863;49.506;10.400;2023-09-18T02:31:58;97366.03;;;17.50;93.43
9423;BME280;65863;49.506;10.400;2023-09-18T02:34:43;97389.28;;;17.84;93.16
9423;BME280;65863;49.506;10.400;2023-09-18T02:37:27;97371.66;;;17.98;93.06
9423;BME280;65863;49.506;10.400;2023-09-18T02:40:49;97353.97;;;18.11;91.99
9423;BME280;65863;49.506;10.400;2023-09-18T02:44:10;97351.81;;;18.23;91.16
9423;BME280;65863;49.506;10.400;2023-09-18T02:46:54;97359.31;;;18.31;90.46
9423;BME280;65863;49.506;10.400;2023-09-18T02:49:51;97355.81;;;18.44;90.21
9423;BME280;65863;49.506;10.400;2023-09-18T02:52:35;97326.97;;;18.36;89.86
9423;BME280;65863;49.506;10.400;2023-09-18T02:55:19;97339.91;;;18.65;89.39
9423;BME280;65863;49.506;10.400;2023-09-18T02:58:03;97336.66;;;18.45;88.56
9423;BME280;65863;49.506;10.400;2023-09-18T03:00:49;97289.34;;;17.98;88.29
9423;BME280;65863;49.506;10.400;2023-09-18T03:03:33;97350.34;;;18.22;88.28
9423;BME280;65863;49.506;10.400;2023-09-18T03:06:55;97325.41;;;18.21;89.00
9423;BME280;65863;49.506;10.400;2023-09-18T03:10:16;97296.59;;;18.27;88.71
9423;BME280;65863;49.506;10.400;2023-09-18T03:13:02;97344.03;;;18.75;88.21
9423;BME280;65863;49.506;10.400;2023-09-18T03:15:47;97325.59;;;18.76;87.67
9423;BME280;65863;49.506;10.400;2023-09-18T03:18:31;97296.03;;;18.82;86.82
9423;BME280;65863;49.506;10.400;2023-09-18T03:21:16;97328.22;;;19.12;86.02
9423;BME280;65863;49.506;10.400;2023-09-18T03:24:00;97341.53;;;19.21;85.32
9423;BME280;65863;49.506;10.400;2023-09-18T03:26:43;97344.16;;;19.31;84.83
9423;BME280;65863;49.506;10.400;2023-09-18T03:29:28;97336.25;;;19.30;84.71
9423;BME280;65863;49.506;10.400;2023-09-18T03:32:14;97347.00;;;19.31;84.56
9423;BME280;65863;49.506;10.400;2023-09-18T03:34:58;97374.09;;;19.32;84.81
9423;BME280;65863;49.506;10.400;2023-09-18T03:37:43;97351.19;;;19.16;84.51
9423;BME280;65863;49.506;10.400;2023-09-18T03:40:27;97341.22;;;19.15;84.53
9423;BME280;65863;49.506;10.400;2023-09-18T03:43:50;97369.97;;;19.21;84.60
9423;BME280;65863;49.506;10.400;2023-09-18T03:46:37;97329.44;;;18.81;85.01
9423;BME280;65863;49.506;10.400;2023-09-18T03:49:21;97358.06;;;18.85;85.54
9423;BME280;65863;49.506;10.400;2023-09-18T03:52:08;97371.50;;;18.71;86.68
9423;BME280;65863;49.506;10.400;2023-09-18T03:54:52;97343.84;;;18.46;86.96
9423;BME280;65863;49.506;10.400;2023-09-18T03:57:36;97370.75;;;18.70;86.84
9423;BME280;65863;49.506;10.400;2023-09-18T04:00:24;97292.88;;;18.36;87.09
9423;BME280;65863;49.506;10.400;2023-09-18T04:03:08;97345.50;;;18.76;87.34
9423;BME280;65863;49.506;10.400;2023-09-18T04:05:52;97325.94;;;18.43;87.58
9423;BME280;65863;49.506;10.400;2023-09-18T04:08:37;97302.06;;;18.22;88.53
9423;BME280;65863;49.506;10.400;2023-09-18T04:11:20;97311.94;;;18.21;88.28
9423;BME280;65863;49.506;10.400;2023-09-18T04:14:09;97326.50;;;18.28;88.61
9423;BME280;65863;49.506;10.400;2023-09-18T04:16:53;97285.81;;;18.11;88.70
9423;BME280;65863;49.506;10.400;2023-09-18T04:19:37;97295.00;;;17.86;88.93
9423;BME280;65863;49.506;10.400;2023-09-18T04:22:21;97306.34;;;17.86;89.16
9423;BME280;65863;49.506;10.400;2023-09-18T04:25:43;97300.44;;;17.82;89.52
9423;BME280;65863;49.506;10.400;2023-09-18T04:28:27;97355.50;;;18.00;89.67
9423;BME280;65863;49.506;10.400;2023-09-18T04:31:13;97369.22;;;17.92;89.96
9423;BME280;65863;49.506;10.400;2023-09-18T04:33:57;97343.78;;;17.70;90.28
9423;BME280;65863;49.506;10.400;2023-09-18T04:36:41;97254.84;;;17.04;90.23
9423;BME280;65863;49.506;10.400;2023-09-18T04:39:27;97334.47;;;17.44;90.25
9423;BME280;65863;49.506;10.400;2023-09-18T04:42:14;97323.97;;;17.35;90.61
9423;BME280;65863;49.506;10.400;2023-09-18T04:44:57;97305.75;;;17.02;91.08
9423;BME280;65863;49.506;10.400;2023-09-18T04:47:42;97342.72;;;17.04;91.63
9423;BME280;65863;49.506;10.400;2023-09-18T04:51:04;97359.09;;;17.18;92.12
9423;BME280;65863;49.506;10.400;2023-09-18T04:53:49;97347.16;;;16.96;92.41
9423;BME280;65863;49.506;10.400;2023-09-18T04:56:32;97347.78;;;16.94;92.69
9423;BME280;65863;49.506;10.400;2023-09-18T04:59:17;97391.91;;;17.09;92.87
9423;BME280;65863;49.506;10.400;2023-09-18T05:02:01;97374.38;;;17.01;93.51
9423;BME280;65863;49.506;10.400;2023-09-18T05:04:47;97380.91;;;16.92;93.38
9423;BME280;65863;49.506;10.400;2023-09-18T05:07:31;97381.69;;;17.16;93.67
9423;BME280;65863;49.506;10.400;2023-09-18T05:10:16;97395.25;;;17.17;93.62
9423;BME280;65863;49.506;10.400;2023-09-18T05:13:00;97400.19;;;17.29;94.24
9423;BME280;65863;49.506;10.400;2023-09-18T05:15:44;97389.06;;;17.09;94.45
9423;BME280;65863;49.506;10.400;2023-09-18T05:18:28;97377.97;;;17.13;94.66
9423;BME280;65863;49.506;10.400;2023-09-18T05:21:12;97429.41;;;17.31;94.75
9423;BME280;65863;49.506;10.400;2023-09-18T05:23:56;97379.81;;;16.97;94.73
9423;BME280;65863;49.506;10.400;2023-09-18T05:26:40;97378.97;;;17.06;94.56
9423;BME280;65863;49.506;10.400;2023-09-18T05:29:24;97446.81;;;17.73;94.38
9423;BME280;65863;49.506;10.400;2023-09-18T05:32:08;97404.38;;;17.63;94.17
9423;BME280;65863;49.506;10.400;2023-09-18T05:35:04;97408.06;;;17.66;93.98
9423;BME280;65863;49.506;10.400;2023-09-18T05:37:50;97405.38;;;17.68;93.96
9423;BME280;65863;49.506;10.400;2023-09-18T05:40:35;97405.25;;;17.78;93.84
9423;BME280;65863;49.506;10.400;2023-09-18T05:43:19;97409.56;;;17.91;93.44
9423;BME280;65863;49.506;10.400;2023-09-18T05:46:03;97365.41;;;17.64;93.29
9423;BME280;65863;49.506;10.400;2023-09-18T05:48:47;97379.47;;;17.73;92.97
9423;BME280;65863;49.506;10.400;2023-09-18T05:51:31;97371.06;;;17.76;93.01
9423;BME280;65863;49.506;10.400;2023-09-18T05:54:16;97347.03;;;17.53;93.11
9423;BME280;65863;49.506;10.400;2023-09-18T05:57:00;97393.38;;;18.05;93.08
9423;BME280;65863;49.506;10.400;2023-09-18T05:59:46;97373.97;;;18.13;93.05
9423;BME280;65863;49.506;10.400;2023-09-18T06:02:30;97361.16;;;18.00;93.04
9423;BME280;65863;49.506;10.400;2023-09-18T06:05:14;97319.47;;;17.79;92.95
9423;BME280;65863;49.506;10.400;2023-09-18T06:08:00;97344.31;;;18.16;92.98
9423;BME280;65863;49.506;10.400;2023-09-18T06:10:44;97336.03;;;18.20;92.73
9423;BME280;65863;49.506;10.400;2023-09-18T06:13:28;97354.56;;;18.47;92.30
9423;BME280;65863;49.506;10.400;2023-09-18T06:16:21;97346.78;;;18.48;91.65
9423;BME280;65863;49.506;10.400;2023-09-18T06:19:05;97337.41;;;18.45;91.17
9423;BME280;65863;49.506;10.400;2023-09-18T06:21:49;97352.28;;;18.32;90.15
9423;BME280;65863;49.506;10.400;2023-09-18T06:24:34;97203.34;;;17.46;90.32
9423;BME280;65863;49.506;10.400;2023-09-18T06:27:18;97296.03;;;18.16;89.75
9423;BME280;65863;49.506;10.400;2023-09-18T06:30:04;97364.91;;;18.54;89.07
9423;BME280;65863;49.506;10.400;2023-09-18T06:32:48;97329.91;;;18.38;88.99
9423;BME280;65863;49.506;10.400;2023-09-18T06:35:32;97340.00;;;18.41;88.73
9423;BME280;65863;49.506;10.400;2023-09-18T06:38:17;97322.16;;;18.27;89.04
9423;BME280;65863;49.506;10.400;2023-09-18T06:41:01;97358.22;;;18.62;89.22
9423;BME280;65863;49.506;10.400;2023-09-18T06:44:22;97350.81;;;18.56;89.20
9423;BME280;65863;49.506;10.400;2023-09-18T06:47:12;97360.25;;;18.73;89.00
9423;BME280;65863;49.506;10.400;2023-09-18T06:49:56;97371.50;;;18.71;89.09
9423;BME280;65863;49.506;10.400;2023-09-18T06:52:40;97358.75;;;18.72;89.13
9423;BME280;65863;49.506;10.400;2023-09-18T06:55:24;97320.63;;;18.63;88.80
9423;BME280;65863;49.506;10.400;2023-09-18T06:58:09;97358.25;;;19.01;88.81
9423;BME280;65863;49.506;10.400;2023-09-18T07:00:53;97335.31;;;19.11;88.28
9423;BME280;65863;49.506;10.400;2023-09-18T07:03:37;97351.75;;;19.26;87.84
9423;BME280;65863;49.506;10.400;2023-09-18T07:06:24;97304.41;;;19.19;87.69
9423;BME280;65863;49.506;10.400;2023-09-18T07:09:07;97332.16;;;19.60;87.29
9423;BME280;65863;49.506;10.400;2023-09-18T07:11:55;97323.50;;;19.58;85.68
9423;BME280;65863;49.506;10.400;2023-09-18T07:14:39;97344.06;;;19.71;85.85
9423;BME280;65863;49.506;10.400;2023-09-18T07:17:23;97348.91;;;19.54;85.16
9423;BME280;65863;49.506;10.400;2023-09-18T07:20:08;97347.00;;;19.59;85.44
9423;BME280;65863;49.506;10.400;2023-09-18T07:22:57;97312.25;;;19.60;84.90
9423;BME280;65863;49.506;10.400;2023-09-18T07:25:41;97343.53;;;19.88;84.51
9423;BME280;65863;49.506;10.400;2023-09-18T07:28:31;97348.38;;;19.86;84.30
9423;BME280;65863;49.506;10.400;2023-09-18T07:31:16;97370.56;;;20.17;83.89
9423;BME280;65863;49.506;10.400;2023-09-18T07:33:59;97350.06;;;20.35;83.29
9423;BME280;65863;49.506;10.400;2023-09-18T07:36:44;97350.06;;;20.35;81.59
9423;BME280;65863;49.506;10.400;2023-09-18T07:39:28;97365.22;;;20.53;81.30
9423;BME280;65863;49.506;10.400;2023-09-18T07:42:12;97331.09;;;20.55;80.32
9423;BME280;65863;49.506;10.400;2023-09-18T07:44:56;97361.06;;;20.86;79.37
9423;BME280;65863;49.506;10.400;2023-09-18T07:47:41;97374.28;;;21.09;77.92
9423;BME280;65863;49.506;10.400;2023-09-18T07:50:25;97374.91;;;21.40;77.04
9423;BME280;65863;49.506;10.400;2023-09-18T07:53:10;97343.06;;;21.29;75.21
9423;BME280;65863;49.506;10.400;2023-09-18T07:55:57;97358.09;;;21.96;75.03
9423;BME280;65863;49.506;10.400;2023-09-18T07:58:42;97390.59;;;22.75;74.00
9423;BME280;65863;49.506;10.400;2023-09-18T08:01:26;97404.47;;;23.38;71.58
9423;BME280;65863;49.506;10.400;2023-09-18T08:04:10;97407.00;;;23.68;69.50
9423;BME280;65863;49.506;10.400;2023-09-18T08:06:54;97401.13;;;23.64;67.62
9423;BME280;65863;49.506;10.400;2023-09-18T08:09:38;97406.78;;;24.02;66.53
9423;BME280;65863;49.506;10.400;2023-09-18T08:12:23;97391.31;;;24.32;65.33
9423;BME280;65863;49.506;10.400;2023-09-18T08:15:07;97420.66;;;24.74;64.65
9423;BME280;65863;49.506;10.400;2023-09-18T08:17:52;97414.53;;;24.84;63.26
9423;BME280;65863;49.506;10.400;2023-09-18T08:20:41;97417.81;;;25.21;62.55
9423;BME280;65863;49.506;10.400;2023-09-18T08:23:26;97418.41;;;25.66;61.38
9423;BME280;65863;49.506;10.400;2023-09-18T08:26:10;97422.16;;;26.23;60.25
9423;BME280;65863;49.506;10.400;2023-09-18T08:28:54;97434.47;;;26.56;58.22
9423;BME280;65863;49.506;10.400;2023-09-18T08:31:38;97429.03;;;26.68;57.77
9423;BME280;65863;49.506;10.400;2023-09-18T08:34:22;97439.13;;;26.41;56.15
9423;BME280;65863;49.506;10.400;2023-09-18T08:37:06;97408.16;;;25.85;56.14
9423;BME280;65863;49.506;10.400;2023-09-18T08:39:50;97443.22;;;26.05;56.35
9423;BME280;65863;49.506;10.400;2023-09-18T08:43:14;97400.66;;;25.73;55.65
9423;BME280;65863;49.506;10.400;2023-09-18T08:45:59;97426.97;;;25.90;56.02
9423;BME280;65863;49.506;10.400;2023-09-18T08:48:45;97440.50;;;25.85;56.61
9423;BME280;65863;49.506;10.400;2023-09-18T08:52:08;97438.00;;;26.00;56.33
9423;BME280;65863;49.506;10.400;2023-09-18T08:55:30;97413.06;;;25.80;55.76
9423;BME280;65863;49.506;10.400;2023-09-18T08:58:15;97412.44;;;25.84;56.60
9423;BME280;65863;49.506;10.400;2023-09-18T09:01:03;97359.03;;;25.24;55.56
9423;BME280;65863;49.506;10.400;2023-09-18T09:03:49;97407.81;;;25.72;54.61
9423;BME280;65863;49.506;10.400;2023-09-18T09:06:33;97409.19;;;25.69;53.19
9423;BME280;65863;49.506;10.400;2023-09-18T09:09:18;97437.34;;;25.75;53.61
9423;BME280;65863;49.506;10.400;2023-09-18T09:12:03;97402.00;;;25.44;53.22
9423;BME280;65863;49.506;10.400;2023-09-18T09:15:03;97421.41;;;25.21;53.24
9423;BME280;65863;49.506;10.400;2023-09-18T09:18:27;97418.47;;;24.95;54.00
9423;BME280;65863;49.506;10.400;2023-09-18T09:21:49;97418.38;;;24.93;54.46
9423;BME280;65863;49.506;10.400;2023-09-18T09:24:40;97405.38;;;24.90;54.56
9423;BME280;65863;49.506;10.400;2023-09-18T09:27:24;97403.06;;;24.84;54.08
9423;BME280;65863;49.506;10.400;2023-09-18T09:30:46;97378.31;;;24.73;54.78
9423;BME280;65863;49.506;10.400;2023-09-18T09:33:31;97420.63;;;24.72;54.89
9423;BME280;65863;49.506;10.400;2023-09-18T09:36:54;97418.34;;;24.91;55.21
9423;BME280;65863;49.506;10.400;2023-09-18T09:39:51;97427.16;;;25.21;54.65
9423;BME280;65863;49.506;10.400;2023-09-18T09:42:40;97414.25;;;25.22;54.46
9423;BME280;65863;49.506;10.400;2023-09-18T09:45:24;97385.47;;;25.20;54.16
9423;BME280;65863;49.506;10.400;2023-09-18T09:49:03;97404.53;;;25.58;53.91
9423;BME280;65863;49.506;10.400;2023-09-18T09:51:50;97425.13;;;25.74;53.59
9423;BME280;65863;49.506;10.400;2023-09-18T09:54:35;97426.13;;;25.85;53.57
9423;BME280;65863;49.506;10.400;2023-09-18T09:57:20;97423.81;;;25.80;53.20
9423;BME280;65863;49.506;10.400;2023-09-18T10:00:05;97409.09;;;25.41;53.34
9423;BME280;65863;49.506;10.400;2023-09-18T10:03:10;97417.25;;;25.02;53.66
9423;BME280;65863;49.506;10.400;2023-09-18T10:05:55;97443.03;;;25.24;53.92
9423;BME280;65863;49.506;10.400;2023-09-18T10:08:40;97433.69;;;24.78;53.92
9423;BME280;65863;49.506;10.400;2023-09-18T10:11:26;97442.00;;;24.69;54.36
9423;BME280;65863;49.506;10.400;2023-09-18T10:14:18;97426.84;;;24.45;54.76
9423;BME280;65863;49.506;10.400;2023-09-18T10:17:19;97451.28;;;24.46;54.72
9423;BME280;65863;49.506;10.400;2023-09-18T10:20:12;97438.13;;;24.18;55.26
9423;BME280;65863;49.506;10.400;2023-09-18T10:23:05;97452.88;;;24.09;56.07
9423;BME280;65863;49.506;10.400;2023-09-18T10:25:55;97459.97;;;23.67;56.94
9423;BME280;65863;49.506;10.400;2023-09-18T10:28:42;97484.16;;;23.44;57.39
9423;BME280;65863;49.506;10.400;2023-09-18T10:31:26;97513.13;;;23.34;58.81
9423;BME280;65863;49.506;10.400;2023-09-18T10:34:22;97465.84;;;22.97;60.76
9423;BME280;65863;49.506;10.400;2023-09-18T10:37:07;97498.38;;;23.06;61.64
9423;BME280;65863;49.506;10.400;2023-09-18T10:39:53;97491.78;;;22.49;62.08
9423;BME280;65863;49.506;10.400;2023-09-18T10:42:41;97473.63;;;22.09;62.92
9423;BME280;65863;49.506;10.400;2023-09-18T10:46:04;97456.72;;;21.65;64.32
9423;BME280;65863;49.506;10.400;2023-09-18T10:48:54;97475.69;;;21.58;65.10
9423;BME280;65863;49.506;10.400;2023-09-18T10:51:39;97469.22;;;21.58;66.17
9423;BME280;65863;49.506;10.400;2023-09-18T10:54:26;97480.66;;;21.58;68.27
9423;BME280;65863;49.506;10.400;2023-09-18T10:57:11;97505.16;;;21.63;69.88
9423;BME280;65863;49.506;10.400;2023-09-18T11:00:07;97447.72;;;21.25;71.31
9423;BME280;65863;49.506;10.400;2023-09-18T11:03:14;97488.16;;;21.51;72.01
9423;BME280;65863;49.506;10.400;2023-09-18T11:06:10;97458.66;;;21.30;72.48
9423;BME280;65863;49.506;10.400;2023-09-18T11:09:41;97469.75;;;21.38;73.44
9423;BME280;65863;49.506;10.400;2023-09-18T11:13:05;97446.16;;;21.22;73.36
9423;BME280;65863;49.506;10.400;2023-09-18T11:15:51;97465.19;;;21.17;73.76
9423;BME280;65863;49.506;10.400;2023-09-18T11:18:37;97472.84;;;21.12;74.68
9423;BME280;65863;49.506;10.400;2023-09-18T11:21:25;97524.22;;;21.28;75.17
9423;BME280;65863;49.506;10.400;2023-09-18T11:24:28;97500.53;;;20.80;75.90
9423;BME280;65863;49.506;10.400;2023-09-18T11:27:13;97529.03;;;20.80;76.47
9423;BME280;65863;49.506;10.400;2023-09-18T11:30:36;97571.56;;;21.04;76.94
9423;BME280;65863;49.506;10.400;2023-09-18T11:33:42;97553.03;;;20.75;77.27
9423;BME280;65863;49.506;10.400;2023-09-18T11:36:29;97543.63;;;20.44;77.95
9423;BME280;65863;49.506;10.400;2023-09-18T11:39:35;97553.47;;;20.41;78.88
9423;BME280;65863;49.506;10.400;2023-09-18T11:43:23;97573.84;;;20.36;79.65
9423;BME280;65863;49.506;10.400;2023-09-18T11:46:18;97538.34;;;19.97;80.73
9423;BME280;65863;49.506;10.400;2023-09-18T11:49:03;97560.50;;;19.99;81.79
9423;BME280;65863;49.506;10.400;2023-09-18T11:51:50;97582.53;;;19.98;83.25
9423;BME280;65863;49.506;10.400;2023-09-18T11:54:34;97511.25;;;19.56;83.69
9423;BME280;65863;49.506;10.400;2023-09-18T11:57:56;97555.44;;;19.97;85.23
9423;BME280;65863;49.506;10.400;2023-09-18T12:00:46;97552.91;;;20.03;85.73
9423;BME280;65863;49.506;10.400;2023-09-18T12:03:30;97503.97;;;19.53;85.56
9423;BME280;65863;49.506;10.400;2023-09-18T12:06:16;97555.41;;;19.83;85.39
9423;BME280;65863;49.506;10.400;2023-09-18T12:09:39;97566.13;;;19.71;85.84
9423;BME280;65863;49.506;10.400;2023-09-18T12:12:23;97544.03;;;19.57;86.93
9423;BME280;65863;49.506;10.400;2023-09-18T12:15:07;97596.81;;;19.72;87.84
9423;BME280;65863;49.506;10.400;2023-09-18T12:18:32;97583.16;;;19.57;88.56
9423;BME280;65863;49.506;10.400;2023-09-18T12:21:23;97574.16;;;19.23;89.12
9423;BME280;65863;49.506;10.400;2023-09-18T12:24:13;97534.13;;;18.81;89.84
9423;BME280;65863;49.506;10.400;2023-09-18T12:26:57;97559.84;;;18.71;90.15
9423;BME280;65863;49.506;10.400;2023-09-18T12:29:42;97586.06;;;18.70;90.65
9423;BME280;65863;49.506;10.400;2023-09-18T12:32:26;97505.44;;;18.16;91.58
9423;BME280;65863;49.506;10.400;2023-09-18T12:35:13;97566.78;;;18.56;92.27
9423;BME280;65863;49.506;10.400;2023-09-18T12:37:58;97558.59;;;18.63;93.08
9423;BME280;65863;49.506;10.400;2023-09-18T12:40:43;97496.94;;;18.04;93.28
9423;BME280;65863;49.506;10.400;2023-09-18T12:44:06;97538.19;;;18.29;93.43
9423;BME280;65863;49.506;10.400;2023-09-18T12:46:58;97545.56;;;18.34;94.20
9423;BME280;65863;49.506;10.400;2023-09-18T12:49:42;97533.72;;;18.26;94.44
9423;BME280;65863;49.506;10.400;2023-09-18T12:52:26;97528.31;;;18.18;94.60
9423;BME280;65863;49.506;10.400;2023-09-18T12:55:48;97550.50;;;18.21;94.30
9423;BME280;65863;49.506;10.400;2023-09-18T12:58:49;97552.88;;;18.25;94.39
9423;BME280;65863;49.506;10.400;2023-09-18T13:01:33;97551.75;;;18.18;94.35
9423;BME280;65863;49.506;10.400;2023-09-18T13:04:18;97523.00;;;18.00;94.27
9423;BME280;65863;49.506;10.400;2023-09-18T13:07:44;97576.31;;;18.26;94.08
9423;BME280;65863;49.506;10.400;2023-09-18T13:10:28;97508.06;;;18.00;93.88
9423;BME280;65863;49.506;10.400;2023-09-18T13:13:20;97525.59;;;18.08;94.30
9423;BME280;65863;49.506;10.400;2023-09-18T13:16:42;97540.28;;;18.16;94.45
9423;BME280;65863;49.506;10.400;2023-09-18T13:19:26;97591.28;;;18.38;94.21
9423;BME280;65863;49.506;10.400;2023-09-18T13:22:10;97551.63;;;18.28;93.69
9423;BME280;65863;49.506;10.400;2023-09-18T13:25:37;97542.63;;;18.32;93.51
9423;BME280;65863;49.506;10.400;2023-09-18T13:28:27;97507.31;;;18.23;93.30
9423;BME280;65863;49.506;10.400;2023-09-18T13:31:14;97550.84;;;18.51;93.06
9423;BME280;65863;49.506;10.400;2023-09-18T13:33:59;97534.19;;;18.46;92.74
9423;BME280;65863;49.506;10.400;2023-09-18T13:36:44;97528.41;;;18.32;92.16
9423;BME280;65863;49.506;10.400;2023-09-18T13:39:29;97534.41;;;18.62;92.29
9423;BME280;65863;49.506;10.400;2023-09-18T13:42:13;97542.41;;;18.77;92.01
9423;BME280;65863;49.506;10.400;2023-09-18T13:44:58;97541.03;;;18.78;91.58
9423;BME280;65863;49.506;10.400;2023-09-18T13:47:44;97512.69;;;18.54;90.80
9423;BME280;65863;49.506;10.400;2023-09-18T13:51:06;97515.25;;;18.62;90.02
9423;BME280;65863;49.506;10.400;2023-09-18T13:53:56;97508.13;;;18.49;88.90
9423;BME280;65863;49.506;10.400;2023-09-18T13:56:41;97505.03;;;18.45;88.37
9423;BME280;65863;49.506;10.400;2023-09-18T13:59:25;97481.97;;;18.27;88.20
9423;BME280;65863;49.506;10.400;2023-09-18T14:02:47;97484.69;;;18.25;88.96
9423;BME280;65863;49.506;10.400;2023-09-18T14:05:36;97466.34;;;18.02;88.92
9423;BME280;65863;49.506;10.400;2023-09-18T14:08:21;97450.28;;;17.95;89.31
9423;BME280;65863;49.506;10.400;2023-09-18T14:11:08;97429.81;;;17.97;89.43
9423;BME280;65863;49.506;10.400;2023-09-18T14:13:58;97506.53;;;18.46;89.72
9423;BME280;65863;49.506;10.400;2023-09-18T14:16:42;97516.50;;;18.59;89.53
9423;BME280;65863;49.506;10.400;2023-09-18T14:19:27;97505.50;;;18.53;90.04
9423;BME280;65863;49.506;10.400;2023-09-18T14:22:49;97493.63;;;18.57;89.72
9423;BME280;65863;49.506;10.400;2023-09-18T14:25:39;97529.66;;;18.78;88.60
9423;BME280;65863;49.506;10.400;2023-09-18T14:28:23;97428.75;;;18.28;87.86
9423;BME280;65863;49.506;10.400;2023-09-18T14:31:07;97510.78;;;19.08;87.94
9423;BME280;65863;49.506;10.400;2023-09-18T14:33:51;97430.31;;;18.42;86.54
9423;BME280;65863;49.506;10.400;2023-09-18T14:36:52;97513.06;;;19.24;86.10
9423;BME280;65863;49.506;10.400;2023-09-18T14:39:36;97525.94;;;19.39;85.66
9423;BME280;65863;49.506;10.400;2023-09-18T14:42:20;97462.31;;;19.06;84.61
9423;BME280;65863;49.506;10.400;2023-09-18T14:45:04;97477.66;;;19.27;85.75
9423;BME280;65863;49.506;10.400;2023-09-18T14:48:25;97482.63;;;19.26;85.22
9423;BME280;65863;49.506;10.400;2023-09-18T14:51:16;97447.66;;;18.98;85.19
9423;BME280;65863;49.506;10.400;2023-09-18T14:54:02;97492.69;;;19.16;84.59
9423;BME280;65863;49.506;10.400;2023-09-18T14:56:48;97468.28;;;18.99;85.20
9423;BME280;65863;49.506;10.400;2023-09-18T14:59:32;97482.91;;;19.19;85.29
9423;BME280;65863;49.506;10.400;2023-09-18T15:02:16;97455.44;;;18.98;85.20
9423;BME280;65863;49.506;10.400;2023-09-18T15:05:01;97493.16;;;19.24;85.29